Dirección General De Aeronáutica Civil

Dirección Meteorológica de Chile - Servicios Climáticos

Informe General de Control de Calidad de la Estación

Listado de niveles de control de calidad para algunos parámetros
Estación Santo Domingo, Ad. (330030)
Fecha de Revisión de los datos :

Elementos

Registros Niveles de Control Total
Nivel 0 Nivel 1 Nivel 2 Nivel 3 Errores Porcentaje
01 Temperatura del Aire Seco 274.642 0 . 0 . 0 . 0 . 0 0.00 %
02 Temperatura de Rocío 263.599 0 . 0 . 0 . 0 . 0 0.00 %
03 Humedad Relativa del Aire 272.270 0 . 0 . 0 . 0 . 0 0.00 %
04 Temperatura Máxima PM 20.195 0 . 0 . 1 0.00 % 0 . 1 0.00 %
05 Temperatura Mínima AM 20.705 0 . 0 . 1 0.00 % 0 . 1 0.00 %
06 Viento a 10 m. de Altura 274.348 0 . 0 . 0 . 0 . 0 0.00 %
07 Agua Caida, Acumulada 6 Horas 76.958 0 . 421 0.55 % 0 . 0 . 421 0.55 %
08 Presión Atm. a Nivel de Estación (QFE) 266.536 0 . 0 . 0 . 0 . 0 0.00 %
09 Presión Atm. a Nivel Medio del Mar (QFF) 256.821 0 . 0 . 0 . 0 . 0 0.00 %
10 Presión Atm. Estándar OACI (QNH) 258.377 10 0.00 % 0 . 0 . 0 . 10 0.00 %
11 Tiempo Pasado Sinóptico 98.277 0 . 0 . 0 . 0 . 0 0.00 %
12 Tiempo Presente Sinóptico 115.885 0 . 1 0.00 % 0 . 0 . 1 0.00 %

Totales

2.198.613 . 0.0005 % . 0.0192 % . 0.0001 % . 0.0000 % 434 0.0197 %

Detalle de Errores Encontrados

Nivel Fecha del Dato Descripción Información Error Fecha Ingreso
0 2011-03-21 13:42:00 qnh (Presión a nivel estandar) debe ser numérico, entre 300 y 1100 95.0 2011-03-21 11:00:00
0 2011-04-13 18:10:00 qnh (Presión a nivel estandar) debe ser numérico, entre 300 y 1100 77.0 2011-04-13 15:58:00
0 2011-09-24 15:22:00 qnh (Presión a nivel estandar) debe ser numérico, entre 300 y 1100 85.0 2011-09-24 15:48:00
0 2011-12-29 18:35:00 qnh (Presión a nivel estandar) debe ser numérico, entre 300 y 1100 70.0 2011-12-29 19:37:00
0 2012-03-24 17:45:00 qnh (Presión a nivel estandar) debe ser numérico, entre 300 y 1100 72.0 2012-03-24 19:38:00
0 2012-03-24 19:30:00 qnh (Presión a nivel estandar) debe ser numérico, entre 300 y 1100 78.0 2012-03-24 19:45:00
0 2012-12-02 16:10:00 qnh (Presión a nivel estandar) debe ser numérico, entre 300 y 1100 80.0 2012-12-04 14:39:00
0 2012-12-02 17:30:00 qnh (Presión a nivel estandar) debe ser numérico, entre 300 y 1100 80.0 2012-12-04 15:15:00
0 2015-01-12 11:35:00 qnh (Presión a nivel estandar) debe ser numérico, entre 300 y 1100 88.0 2015-01-12 11:35:00
0 2015-02-14 14:38:00 qnh (Presión a nivel estandar) debe ser numérico, entre 300 y 1100 78.0 2015-02-14 14:41:00
Errores del Nivel 10
Nivel Fecha del Dato Descripción Información Error Fecha Ingreso
1 1981-04-27 18:00:00 rrr = s/p y WW = 1 w1=6 w2=2 0.0 2011-07-20 19:21:00
1 1982-03-26 12:00:00 rrr = 2.0 y WW = 2 w1=0 w2=0 2.0 2011-07-20 18:53:00
1 1982-04-10 12:00:00 rrr = 0.2 y WW = 5 w1=2 w2=2 0.2 2011-07-20 18:54:00
1 1982-04-18 12:00:00 rrr = 0.3 y WW = 2 w1=0 w2=0 0.3 2017-10-06 19:05:00
1 1982-06-05 12:00:00 rrr = 17.0 y WW = 2 w1=2 w2=2 17.0 2011-07-20 18:57:00
1 1982-06-06 12:00:00 rrr = 14.0 y WW = 2 w1=2 w2=2 14.0 2011-07-20 18:57:00
1 1982-06-20 12:00:00 rrr = 0.5 y WW = 1 w1=1 w2=1 0.5 2017-10-06 19:33:00
1 1982-07-03 12:00:00 rrr = 0.7 y WW = 2 w1=2 w2=2 0.7 2011-07-20 18:59:00
1 1982-07-05 12:00:00 rrr = 1.0 y WW = 1 w1=2 w2=2 1.0 2011-07-20 18:59:00
1 1982-07-06 12:00:00 rrr = 1.1 y WW = 2 w1=1 w2=1 1.1 2011-07-20 18:59:00
1 1982-08-13 18:00:00 rrr = s/p y WW = 2 w1=6 w2=2 0.0 2011-07-20 19:01:00
1 1982-08-28 12:00:00 rrr = 0.5 y WW = 2 w1=2 w2=2 0.5 2011-07-20 19:02:00
1 1982-09-09 12:00:00 rrr = trazas y WW = 5 w1=2 w2=2 0.0 2011-07-20 19:02:00
1 1982-09-14 12:00:00 rrr = 1.0 y WW = 2 w1=2 w2=2 1.0 2011-07-20 19:02:00
1 1983-01-12 12:00:00 rrr = 1.0 y WW = 1 w1=1 w2=1 1.0 2011-07-20 19:48:00
1 1983-05-16 12:00:00 rrr = 1.0 y WW = 5 w1=2 w2=2 1.0 2011-07-20 19:52:00
1 1983-05-19 12:00:00 rrr = 12.0 y WW = 5 w1=2 w2=2 12.0 2011-07-20 19:52:00
1 1983-05-30 12:00:00 rrr = trazas y WW = 2 w1=0 w2=0 0.0 2011-07-20 19:53:00
1 1983-06-01 12:00:00 rrr = 1.0 y WW = 2 w1=1 w2=1 1.0 2011-07-20 19:53:00
1 1983-06-19 12:00:00 rrr = 3.2 y WW = 2 w1=1 w2=1 3.2 2011-07-20 19:53:00
1 1983-07-15 12:00:00 rrr = 5.0 y WW = 2 w1=0 w2=0 5.0 2011-07-20 19:55:00
1 1983-07-28 12:00:00 rrr = 0.3 y WW = 1 w1=1 w2=1 0.3 2011-07-20 19:55:00
1 1983-08-06 12:00:00 rrr = 0.1 y WW = 1 w1=1 w2=1 0.1 2011-07-20 19:55:00
1 1983-08-11 00:00:00 rrr = 1.5 y WW = 1 w1=2 w2=2 1.5 2011-07-20 19:56:00
1 1983-08-31 12:00:00 rrr = 7.0 y WW = 2 w1=0 w2=0 7.0 2011-07-20 19:57:00
1 1983-09-05 12:00:00 rrr = 1.6 y WW = 2 w1=2 w2=2 1.6 2011-07-20 19:57:00
1 1983-09-14 18:00:00 rrr = trazas y WW = 5 w1=2 w2=2 0.0 2011-07-20 19:57:00
1 1983-11-04 12:00:00 rrr = trazas y WW = 10 w1=2 w2=2 0.0 2011-07-20 19:59:00
1 1984-03-31 12:00:00 rrr = trazas y WW = 2 w1=0 w2=0 0.0 2011-04-07 11:59:00
1 1984-05-04 12:00:00 rrr = 50.0 y WW = 1 w1=1 w2=1 50.0 2011-04-07 12:00:00
1 1984-05-19 12:00:00 rrr = 0.5 y WW = 12 w1=2 w2=2 0.5 2011-04-07 12:00:00
1 1984-05-28 12:00:00 rrr = 5.1 y WW = 2 w1=2 w2=2 5.1 2011-04-07 12:00:00
1 1984-06-27 12:00:00 rrr = 2.0 y WW = 5 w1=2 w2=2 2.0 2011-04-07 12:01:00
1 1984-07-12 12:00:00 rrr = 0.3 y WW = 2 w1=0 w2=0 0.3 2011-04-07 12:01:00
1 1984-07-30 18:00:00 rrr = s/p y WW = 5 w1=6 w2=4 0.0 2011-04-07 12:02:00
1 1984-08-19 18:00:00 rrr = 0.8 y WW = 2 w1=2 w2=1 0.8 2011-04-07 12:02:00
1 1984-08-22 12:00:00 rrr = 0.7 y WW = 2 w1=2 w2=2 0.7 2011-04-07 12:02:00
1 1984-11-20 18:00:00 rrr = s/p y WW = 1 w1=5 w2=5 0.0 2011-04-07 12:03:00
1 1984-12-18 00:00:00 rrr = s/p y WW = 10 w1=5 w2=5 0.0 2011-04-07 12:04:00
1 1984-12-22 18:00:00 rrr = trazas y WW = 5 w1=4 w2=4 0.0 2011-04-07 12:04:00
1 1985-01-12 18:00:00 rrr = trazas y WW = 2 w1=2 w2=2 0.0 2011-07-21 12:59:00
1 1985-01-19 18:00:00 rrr = trazas y WW = 1 w1=2 w2=2 0.0 2011-07-21 12:59:00
1 1985-02-05 18:00:00 rrr = trazas y WW = 2 w1=2 w2=2 0.0 2011-07-21 13:00:00
1 1985-04-01 12:00:00 rrr = 5.3 y WW = 2 w1=1 w2=1 5.3 2011-07-21 13:03:00
1 1985-05-06 12:00:00 rrr = 0.9 y WW = 10 w1=4 w2=4 0.9 2011-07-21 13:05:00
1 1985-05-21 12:00:00 rrr = trazas y WW = 2 w1=0 w2=0 0.0 2011-07-21 13:05:00
1 1985-05-23 12:00:00 rrr = trazas y WW = 2 w1=2 w2=2 0.0 2011-07-21 13:05:00
1 1985-05-25 12:00:00 rrr = 14.0 y WW = 10 w1=2 w2=2 14.0 2011-07-21 13:06:00
1 1985-06-14 12:00:00 rrr = 0.5 y WW = 10 w1=4 w2=4 0.5 2011-07-21 13:06:00
1 1985-06-28 12:00:00 rrr = 1.1 y WW = 10 w1=4 w2=4 1.1 2011-07-21 13:07:00
1 1985-07-09 12:00:00 rrr = 0.4 y WW = 2 w1=1 w2=1 0.4 2011-07-21 13:07:00
1 1985-07-23 12:00:00 rrr = 4.3 y WW = 2 w1=1 w2=1 4.3 2011-07-21 13:07:00
1 1985-07-31 12:00:00 rrr = 0.5 y WW = 2 w1=0 w2=0 0.5 2011-07-21 13:07:00
1 1985-09-06 12:00:00 rrr = trazas y WW = 10 w1=2 w2=2 0.0 2011-07-21 13:08:00
1 1985-10-18 12:00:00 rrr = 6.0 y WW = 1 w1=1 w2=1 6.0 2011-07-21 13:10:00
1 1985-10-21 12:00:00 rrr = 1.1 y WW = 2 w1=0 w2=0 1.1 2011-07-21 13:10:00
1 1985-11-21 12:00:00 rrr = 0.2 y WW = 5 w1=2 w2=2 0.2 2011-07-21 13:10:00
1 1986-04-26 12:00:00 rrr = 0.9 y WW = 2 w1=0 w2=0 0.9 2017-07-26 20:31:00
1 1986-05-17 12:00:00 rrr = 3.8 y WW = 2 w1=2 w2=2 3.8 2011-07-21 13:23:00
1 1986-06-04 12:00:00 rrr = 2.0 y WW = 2 w1=1 w2=1 2.0 2011-07-21 13:24:00
1 1986-06-10 12:00:00 rrr = 11.7 y WW = 2 w1=2 w2=2 11.7 2011-07-21 13:24:00
1 1986-06-17 12:00:00 rrr = 35.0 y WW = 2 w1=2 w2=2 35.0 2011-07-21 13:24:00
1 1987-03-28 12:00:00 rrr = 0.6 y WW = 2 w1=1 w2=1 0.6 2011-07-21 14:10:00
1 1987-05-17 12:00:00 rrr = 3.0 y WW = 2 w1=2 w2=2 3.0 2011-07-21 14:13:00
1 1987-06-28 12:00:00 rrr = 1.8 y WW = 3 w1=2 w2=2 1.8 2011-07-21 14:15:00
1 1987-10-11 12:00:00 rrr = 3.3 y WW = 1 w1=1 w2=1 3.3 2011-07-21 14:19:00
1 1987-10-15 12:00:00 rrr = 1.1 y WW = 2 w1=2 w2=2 1.1 2011-07-21 14:19:00
1 1989-08-23 12:00:00 rrr = 22.1 y WW = 5 w1=2 w2=1 22.1 2011-07-21 15:28:00
1 1990-09-16 00:00:00 rrr = 8.0 y WW = 2 w1=2 w2=2 8.0 2017-07-18 19:43:00
1 1993-02-19 00:00:00 rrr = 1.8 y WW = 10 w1=2 w2=2 1.8 2017-07-06 18:28:00
1 1993-03-05 00:00:00 rrr = 0.2 y WW = 1 w1=2 w2=2 0.2 2017-07-06 19:11:00
1 1993-03-19 00:00:00 rrr = 1.4 y WW = 2 w1=0 w2=0 1.4 2017-07-06 19:38:00
1 1993-07-14 00:00:00 rrr = 0.4 y WW = 10 w1=0 w2=0 0.4 2017-07-07 18:55:00
1 1993-09-06 12:00:00 rrr = 1.5 y WW = 1 w1=2 w2=1 1.5 2011-07-21 17:13:00
1 1994-06-17 00:00:00 rrr = s/p y WW = 2 w1=6 w2=2 0.0 2017-07-10 13:30:00
1 1994-06-18 00:00:00 rrr = s/p y WW = 1 w1=6 w2=2 0.0 2017-07-10 13:30:00
1 1995-04-29 12:00:00 rrr = 0.2 y WW = 2 w1=2 w2=1 0.2 2011-07-21 18:34:00
1 1995-06-16 18:00:00 rrr = 3.3 y WW = 10 w1=2 w2=2 3.3 2011-07-21 18:37:00
1 1995-12-05 18:00:00 rrr = trazas y WW = 2 w1=2 w2=2 0.0 2011-07-21 18:45:00
1 1999-04-26 12:00:00 rrr = 0.8 y WW = 2 w1=1 w2=1 0.8 2011-07-21 21:09:00
1 1999-09-07 12:00:00 rrr = 15.7 y WW = 2 w1=2 w2=2 15.7 2011-07-21 21:15:00
1 2000-06-10 12:00:00 rrr = trazas y WW = 2 w1=0 w2=0 0.0 2011-07-21 21:31:00
1 2001-05-18 12:00:00 rrr = 3.1 y WW = 2 w1=0 w2=0 3.1 2011-07-22 18:31:00
1 2009-06-18 12:00:00 rrr = 0.2 y WW = 2 w1=2 w2=2 0.2 2011-07-27 15:15:00
1 2010-09-27 12:00:00 rrr = 21.6 y WW = 1 w1=2 w2=0 21.6 2011-07-27 15:43:00
1 2011-02-10 12:00:00 rrr = trazas y WW = 5 w1=2 w2=2 0.0 2011-02-21 16:20:00
1 2011-03-16 12:00:00 rrr = trazas y WW = 2 w1=0 w2=0 0.0 2011-03-16 09:01:00
1 2011-04-23 12:00:00 rrr = 0.1 y WW = 5 w1=0 w2=0 0.1 2011-04-23 09:08:00
1 2011-04-27 18:00:00 rrr = 0.2 y WW = 2 w1=0 w2=0 0.2 2011-04-27 14:53:00
1 2011-05-15 18:00:00 rrr = 0.3 y WW = 5 w1=2 w2=2 0.3 2011-05-16 12:17:00
1 2011-06-04 12:00:00 rrr = 0.2 y WW = 5 w1=2 w2=2 0.2 2011-06-04 12:05:00
1 2011-06-30 12:00:00 rrr = 0.2 y WW = 2 w1=0 w2=0 0.2 2011-06-30 12:02:00
1 2011-07-11 12:00:00 rrr = 1.3 y WW = 5 w1=2 w2=2 1.3 2011-07-11 12:05:00
1 2011-07-12 12:00:00 rrr = 0.1 y WW = 2 w1=0 w2=0 0.1 2011-07-12 12:00:00
1 2011-07-15 18:00:00 rrr = 1.2 y WW = 2 w1=0 w2=0 1.2 2011-07-15 17:55:00
1 2011-07-16 12:00:00 rrr = 14.1 y WW = 1 w1=2 w2=2 14.1 2011-07-16 12:35:00
1 2011-07-18 12:00:00 rrr = 1.3 y WW = 1 w1=2 w2=2 1.3 2011-07-18 12:01:00
1 2011-07-25 18:00:00 rrr = 0.4 y WW = 2 w1=0 w2=0 0.4 2011-07-25 17:54:00
1 2011-07-29 12:00:00 rrr = 2.9 y WW = 10 w1=1 w2=1 2.9 2011-07-29 12:17:00
1 2011-07-30 12:00:00 rrr = 0.2 y WW = 1 w1=2 w2=2 0.2 2011-07-30 11:58:00
1 2011-08-05 12:00:00 rrr = 0.1 y WW = 3 w1=2 w2=2 0.1 2011-08-05 12:01:00
1 2011-08-06 12:00:00 rrr = s/p y WW = 2 w1=6 w2=2 0.0 2011-08-06 12:24:00
1 2011-08-16 18:00:00 rrr = 2.8 y WW = 1 w1=2 w2=2 2.8 2011-08-16 18:03:00
1 2011-08-18 18:00:00 rrr = 1.1 y WW = 2 w1=2 w2=0 1.1 2011-08-18 17:58:00
1 2011-08-29 12:00:00 rrr = 0.7 y WW = 2 w1=0 w2=0 0.7 2011-08-29 12:34:00
1 2011-09-09 12:00:00 rrr = trazas y WW = 1 w1=2 w2=2 0.0 2011-09-09 12:25:00
1 2011-09-14 18:00:00 rrr = 0.2 y WW = 5 w1=2 w2=2 0.2 2011-09-15 14:17:00
1 2011-09-22 00:00:00 rrr = 0.2 y WW = 10 w1=4 w2=4 0.2 2011-09-22 00:07:00
1 2011-09-22 12:00:00 rrr = 1.5 y WW = 5 w1=2 w2=2 1.5 2011-09-22 12:13:00
1 2011-11-09 12:00:00 rrr = 1.9 y WW = 3 w1=0 w2=0 1.9 2011-11-09 12:04:00
1 2011-11-16 12:00:00 rrr = trazas y WW = 5 w1=3 w2=2 0.0 2011-11-20 14:22:00
1 2011-12-14 18:00:00 rrr = trazas y WW = 2 w1=2 w2=2 0.0 2011-12-14 18:04:00
1 2012-02-13 00:00:00 rrr = s/p y WW = 50 w1=5 w2=2 0.0 2012-02-13 11:05:00
1 2012-02-14 18:00:00 rrr = trazas y WW = 5 w1=2 w2=2 0.0 2012-02-14 17:56:00
1 2012-02-15 12:00:00 rrr = trazas y WW = 2 w1=0 w2=0 0.0 2012-02-15 12:06:00
1 2012-02-24 18:00:00 rrr = 0.1 y WW = 5 w1=2 w2=2 0.1 2012-02-24 18:03:00
1 2012-03-09 12:00:00 rrr = trazas y WW = 5 w1=2 w2=2 0.0 2012-03-09 12:28:00
1 2012-04-06 18:00:00 rrr = trazas y WW = 2 w1=0 w2=0 0.0 2012-04-06 18:22:00
1 2012-04-09 12:00:00 rrr = trazas y WW = 5 w1=2 w2=2 0.0 2012-04-10 00:05:00
1 2012-04-22 18:00:00 rrr = trazas y WW = 5 w1=2 w2=2 0.0 2012-04-22 18:00:00
1 2012-04-27 12:00:00 rrr = trazas y WW = 5 w1=2 w2=2 0.0 2012-04-27 12:04:00
1 2012-05-26 12:00:00 rrr = 4.1 y WW = 1 w1=2 w2=2 4.1 2012-05-26 12:14:00
1 2012-05-28 12:00:00 rrr = 0.3 y WW = 5 w1=2 w2=2 0.3 2012-05-28 12:02:00
1 2012-06-14 12:00:00 rrr = 0.3 y WW = 1 w1=2 w2=2 0.3 2012-06-14 12:03:00
1 2012-06-20 18:00:00 rrr = trazas y WW = 5 w1=2 w2=2 0.0 2012-06-21 00:00:00
1 2012-07-01 12:00:00 rrr = 2.6 y WW = 10 w1=2 w2=2 2.6 2012-07-01 12:06:00
1 2012-07-04 18:00:00 rrr = 1.6 y WW = 2 w1=2 w2=2 1.6 2012-07-04 18:16:00
1 2012-08-02 12:00:00 rrr = 5.1 y WW = 1 w1=2 w2=2 5.1 2012-08-02 11:59:00
1 2012-08-14 18:00:00 rrr = 0.2 y WW = 5 w1=2 w2=2 0.2 2012-08-14 18:09:00
1 2012-08-19 18:00:00 rrr = 0.8 y WW = 1 w1=1 w2=1 0.8 2012-08-19 17:56:00
1 2012-08-20 18:00:00 rrr = trazas y WW = 2 w1=0 w2=0 0.0 2012-08-20 18:01:00
1 2012-08-28 18:00:00 rrr = trazas y WW = 5 w1=2 w2=2 0.0 2012-08-28 18:07:00
1 2012-08-30 00:00:00 rrr = trazas y WW = 3 w1=0 w2=0 0.0 2012-08-29 23:53:00
1 2012-08-31 18:00:00 rrr = trazas y WW = 2 w1=0 w2=0 0.0 2012-08-31 18:19:00
1 2012-09-10 18:00:00 rrr = trazas y WW = 10 w1=2 w2=2 0.0 2012-09-10 18:03:00
1 2012-09-14 12:00:00 rrr = 0.3 y WW = 10 w1=2 w2=2 0.3 2012-09-14 12:23:00
1 2012-10-05 12:00:00 rrr = 0.2 y WW = 1 w1=2 w2=2 0.2 2012-10-05 12:14:00
1 2012-10-07 00:00:00 rrr = 0.1 y WW = 5 w1=1 w2=1 0.1 2012-10-06 23:57:00
1 2012-11-14 18:00:00 rrr = trazas y WW = 5 w1=2 w2=2 0.0 2012-11-14 18:07:00
1 2012-11-16 18:00:00 rrr = 0.2 y WW = 5 w1=2 w2=2 0.2 2012-11-17 00:01:00
1 2012-12-06 18:00:00 rrr = 2.0 y WW = 2 w1=2 w2=2 2.0 2012-12-06 17:58:00
1 2012-12-25 00:00:00 rrr = 2.9 y WW = 5 w1=2 w2=2 2.9 2013-01-23 22:28:00
1 2012-12-25 12:00:00 rrr = 2.2 y WW = 2 w1=0 w2=0 2.2 2012-12-25 12:00:00
1 2012-12-28 00:00:00 rrr = trazas y WW = 2 w1=0 w2=0 0.0 2012-12-28 13:20:00
1 2013-01-13 18:00:00 rrr = trazas y WW = 5 w1=2 w2=2 0.0 2013-01-13 18:14:00
1 2013-01-18 18:00:00 rrr = trazas y WW = 5 w1=2 w2=2 0.0 2013-01-18 19:04:00
1 2013-01-19 18:00:00 rrr = trazas y WW = 5 w1=2 w2=2 0.0 2013-01-19 19:04:00
1 2013-02-27 18:00:00 rrr = 0.1 y WW = 5 w1=3 w2=2 0.1 2013-02-27 18:08:00
1 2013-03-05 18:00:00 rrr = 0.1 y WW = 5 w1=2 w2=2 0.1 2013-03-05 18:37:00
1 2013-03-11 18:00:00 rrr = 0.2 y WW = 1 w1=2 w2=2 0.2 2013-03-12 17:24:00
1 2013-03-28 18:00:00 rrr = trazas y WW = 10 w1=2 w2=2 0.0 2013-03-28 22:47:00
1 2013-03-30 18:00:00 rrr = trazas y WW = 5 w1=2 w2=2 0.0 2013-03-30 17:59:00
1 2013-04-19 12:00:00 rrr = 0.6 y WW = 10 w1=2 w2=2 0.6 2013-04-19 12:01:00
1 2013-04-19 18:00:00 rrr = 0.2 y WW = 2 w1=4 w2=2 0.2 2013-04-19 22:13:00
1 2013-04-20 12:00:00 rrr = 0.3 y WW = 1 w1=2 w2=2 0.3 2013-04-20 12:01:00
1 2013-05-03 12:00:00 rrr = 19.7 y WW = 1 w1=2 w2=2 19.7 2013-05-03 11:59:00
1 2013-05-29 12:00:00 rrr = 0.5 y WW = 2 w1=0 w2=0 0.5 2013-05-29 11:55:00
1 2013-06-01 18:00:00 rrr = 0.1 y WW = 1 w1=1 w2=1 0.1 2013-06-01 17:58:00
1 2013-06-27 12:00:00 rrr = 0.1 y WW = 2 w1=2 w2=2 0.1 2013-06-27 11:55:00
1 2013-06-28 00:00:00 rrr = 3.4 y WW = 5 w1=2 w2=2 3.4 2013-06-28 23:56:00
1 2013-07-04 12:00:00 rrr = 5.7 y WW = 10 w1=2 w2=2 5.7 2013-07-04 12:00:00
1 2013-07-04 18:00:00 rrr = 0.2 y WW = 10 w1=2 w2=2 0.2 2013-07-04 18:00:00
1 2013-07-06 12:00:00 rrr = 2.1 y WW = 5 w1=2 w2=2 2.1 2013-07-06 11:59:00
1 2013-07-10 12:00:00 rrr = 0.4 y WW = 2 w1=2 w2=2 0.4 2013-07-10 11:58:00
1 2013-07-29 18:00:00 rrr = trazas y WW = 5 w1=2 w2=2 0.0 2013-07-30 12:11:00
1 2013-08-14 18:00:00 rrr = s/p y WW = 25 w1=0 w2=0 0.0 2013-08-14 18:02:00
1 2013-09-03 00:00:00 rrr = 0.1 y WW = 5 w1=2 w2=2 0.1 2013-09-02 23:58:00
1 2013-09-03 12:00:00 rrr = trazas y WW = 2 w1=1 w2=1 0.0 2013-09-03 12:08:00
1 2013-09-07 12:00:00 rrr = 0.3 y WW = 10 w1=2 w2=2 0.3 2013-09-07 12:03:00
1 2013-10-10 12:00:00 rrr = trazas y WW = 2 w1=0 w2=0 0.0 2013-10-10 12:03:00
1 2013-12-13 18:00:00 rrr = trazas y WW = 5 w1=2 w2=2 0.0 2013-12-13 18:09:00
1 2013-12-15 18:00:00 rrr = trazas y WW = 1 w1=2 w2=2 0.0 2013-12-15 17:55:00
1 2013-12-20 18:00:00 rrr = trazas y WW = 2 w1=2 w2=2 0.0 2013-12-20 17:59:00
1 2013-12-22 18:00:00 rrr = trazas y WW = 5 w1=2 w2=2 0.0 2013-12-22 17:57:00
1 2014-03-02 12:00:00 rrr = trazas y WW = 2 w1=2 w2=2 0.0 2014-03-02 11:57:00
1 2014-03-14 12:00:00 rrr = trazas y WW = 5 w1=2 w2=2 0.0 2014-03-14 11:56:00
1 2014-04-06 18:00:00 rrr = trazas y WW = 1 w1=2 w2=2 0.0 2014-04-06 17:57:00
1 2014-04-07 12:00:00 rrr = trazas y WW = 2 w1=0 w2=0 0.0 2014-04-07 11:58:00
1 2014-04-23 18:00:00 rrr = trazas y WW = 5 w1=4 w2=2 0.0 2014-04-23 17:59:00
1 2014-04-24 18:00:00 rrr = trazas y WW = 10 w1=2 w2=2 0.0 2014-04-25 00:17:00
1 2014-04-25 18:00:00 rrr = trazas y WW = 5 w1=2 w2=2 0.0 2014-04-25 17:54:00
1 2014-04-26 00:00:00 rrr = trazas y WW = 5 w1=2 w2=2 0.0 2014-04-25 23:57:00
1 2014-05-01 12:00:00 rrr = trazas y WW = 5 w1=2 w2=2 0.0 2014-05-01 11:58:00
1 2014-05-02 00:00:00 rrr = 0.6 y WW = 5 w1=2 w2=2 0.6 2014-05-01 23:56:00
1 2014-05-09 00:00:00 rrr = 0.2 y WW = 40 w1=4 w2=2 0.2 2014-05-08 23:54:00
1 2014-05-10 00:00:00 rrr = 0.1 y WW = 40 w1=4 w2=2 0.1 2014-05-15 21:28:00
1 2014-05-10 12:00:00 rrr = trazas y WW = 10 w1=2 w2=2 0.0 2014-05-10 12:00:00
1 2014-05-30 12:00:00 rrr = 0.2 y WW = 1 w1=0 w2=0 0.2 2014-05-30 11:59:00
1 2014-06-04 12:00:00 rrr = 22.2 y WW = 5 w1=2 w2=2 22.2 2014-06-04 12:04:00
1 2014-06-05 12:00:00 rrr = 0.1 y WW = 2 w1=1 w2=1 0.1 2014-06-05 12:01:00
1 2014-06-09 12:00:00 rrr = 0.2 y WW = 2 w1=0 w2=0 0.2 2014-06-09 11:53:00
1 2014-06-12 18:00:00 rrr = 6.3 y WW = 2 w1=2 w2=2 6.3 2014-06-12 17:57:00
1 2014-07-04 18:00:00 rrr = 0.1 y WW = 5 w1=2 w2=2 0.1 2014-07-04 17:58:00
1 2014-07-05 12:00:00 rrr = 0.1 y WW = 1 w1=1 w2=1 0.1 2014-07-05 11:55:00
1 2014-08-09 12:00:00 rrr = trazas y WW = 10 w1=2 w2=2 0.0 2014-08-09 11:56:00
1 2014-08-30 18:00:00 rrr = 0.2 y WW = 2 w1=2 w2=2 0.2 2014-08-30 17:53:00
1 2014-09-02 00:00:00 rrr = 0.2 y WW = 5 w1=2 w2=2 0.2 2014-09-01 23:44:00
1 2014-09-03 18:00:00 rrr = 0.2 y WW = 1 w1=2 w2=2 0.2 2014-09-03 17:52:00
1 2014-09-05 12:00:00 rrr = 11.2 y WW = 1 w1=2 w2=2 11.2 2014-09-05 11:50:00
1 2014-09-25 18:00:00 rrr = 1.6 y WW = 1 w1=2 w2=2 1.6 2014-09-25 18:01:00
1 2014-09-28 12:00:00 rrr = 0.2 y WW = 2 w1=0 w2=0 0.2 2014-09-28 11:47:00
1 2014-10-18 18:00:00 rrr = trazas y WW = 2 w1=2 w2=2 0.0 2014-10-18 17:51:00
1 2014-10-31 00:00:00 rrr = trazas y WW = 1 w1=1 w2=1 0.0 2014-10-30 23:41:00
1 2014-12-06 12:00:00 rrr = 0.2 y WW = 2 w1=0 w2=0 0.2 2014-12-06 11:50:00
1 2014-12-21 00:00:00 rrr = trazas y WW = 1 w1=2 w2=2 0.0 2014-12-20 23:56:00
1 2014-12-27 18:00:00 rrr = trazas y WW = 2 w1=2 w2=2 0.0 2014-12-27 17:49:00
1 2015-02-21 00:00:00 rrr = trazas y WW = 5 w1=2 w2=2 0.0 2015-02-20 23:47:00
1 2015-02-24 18:00:00 rrr = trazas y WW = 2 w1=2 w2=2 0.0 2015-02-24 17:52:00
1 2015-04-06 18:00:00 rrr = trazas y WW = 1 w1=1 w2=1 0.0 2015-04-06 17:51:00
1 2015-04-16 12:00:00 rrr = trazas y WW = 1 w1=2 w2=2 0.0 2015-04-16 11:58:00
1 2015-04-19 12:00:00 rrr = trazas y WW = 1 w1=2 w2=2 0.0 2015-04-19 11:52:00
1 2015-05-02 12:00:00 rrr = 2.0 y WW = 5 w1=1 w2=1 2.0 2015-05-02 11:51:00
1 2015-05-20 12:00:00 rrr = 0.2 y WW = 5 w1=2 w2=2 0.2 2015-05-20 11:51:00
1 2015-05-30 18:00:00 rrr = 0.2 y WW = 10 w1=2 w2=2 0.2 2015-05-30 17:52:00
1 2015-06-06 00:00:00 rrr = trazas y WW = 2 w1=2 w2=2 0.0 2015-06-05 23:51:00
1 2015-06-07 12:00:00 rrr = 0.2 y WW = 0 w1=2 w2=2 0.2 2015-06-07 11:51:00
1 2015-06-08 12:00:00 rrr = 0.2 y WW = 10 w1=0 w2=0 0.2 2015-06-08 11:55:00
1 2015-07-08 00:00:00 rrr = trazas y WW = 5 w1=1 w2=1 0.0 2015-07-07 23:50:00
1 2015-07-12 18:00:00 rrr = 6.4 y WW = 2 w1=2 w2=2 6.4 2015-07-12 17:53:00
1 2015-07-13 00:00:00 rrr = trazas y WW = 5 w1=2 w2=2 0.0 2015-07-12 23:51:00
1 2015-07-19 12:00:00 rrr = trazas y WW = 5 w1=0 w2=0 0.0 2015-07-19 11:53:00
1 2015-07-24 18:00:00 rrr = 0.2 y WW = 5 w1=2 w2=2 0.2 2015-07-24 17:50:00
1 2015-07-26 18:00:00 rrr = trazas y WW = 2 w1=2 w2=2 0.0 2015-07-26 17:57:00
1 2015-07-27 00:00:00 rrr = trazas y WW = 5 w1=2 w2=2 0.0 2015-07-26 23:50:00
1 2015-07-29 18:00:00 rrr = 0.2 y WW = 1 w1=1 w2=1 0.2 2015-07-29 17:51:00
1 2015-07-31 12:00:00 rrr = 0.4 y WW = 2 w1=0 w2=0 0.4 2015-07-31 11:50:00
1 2015-08-02 00:00:00 rrr = trazas y WW = 5 w1=2 w2=2 0.0 2015-08-01 23:49:00
1 2015-08-05 18:00:00 rrr = 0.2 y WW = 2 w1=2 w2=2 0.2 2015-08-05 17:53:00
1 2015-08-07 12:00:00 rrr = trazas y WW = 5 w1=2 w2=2 0.0 2015-08-07 11:52:00
1 2015-08-30 12:00:00 rrr = 0.2 y WW = 2 w1=1 w2=1 0.2 2015-08-30 11:55:00
1 2015-09-06 12:00:00 rrr = 0.4 y WW = 3 w1=2 w2=2 0.4 2015-09-06 11:59:00
1 2015-10-05 12:00:00 rrr = trazas y WW = 2 w1=2 w2=2 0.0 2015-10-05 11:50:00
1 2015-10-13 18:00:00 rrr = 0.2 y WW = 1 w1=2 w2=2 0.2 2015-10-13 17:59:00
1 2015-10-15 18:00:00 rrr = 0.2 y WW = 1 w1=0 w2=0 0.2 2015-10-15 17:49:00
1 2015-10-16 12:00:00 rrr = 0.2 y WW = 2 w1=2 w2=2 0.2 2015-10-16 11:52:00
1 2015-10-19 18:00:00 rrr = 0.4 y WW = 2 w1=2 w2=2 0.4 2015-10-19 18:00:00
1 2015-11-11 12:00:00 rrr = trazas y WW = 2 w1=2 w2=2 0.0 2015-11-11 11:51:00
1 2015-11-19 12:00:00 rrr = trazas y WW = 2 w1=0 w2=0 0.0 2015-11-19 11:57:00
1 2015-12-29 12:00:00 rrr = 1.2 y WW = 5 w1=2 w2=2 1.2 2015-12-29 21:56:00
1 2016-03-12 18:00:00 rrr = trazas y WW = 2 w1=2 w2=2 0.0 2016-03-12 18:17:00
1 2016-03-13 12:00:00 rrr = trazas y WW = 10 w1=2 w2=2 0.0 2016-03-13 11:55:00
1 2016-03-26 18:00:00 rrr = s/p y WW = 22 w1=2 w2=2 0.0 2016-03-26 17:53:00
1 2016-03-30 00:00:00 rrr = trazas y WW = 5 w1=2 w2=2 0.0 2016-03-29 23:49:00
1 2016-04-08 12:00:00 rrr = trazas y WW = 10 w1=2 w2=2 0.0 2016-04-08 11:57:00
1 2016-04-14 12:00:00 rrr = 0.4 y WW = 2 w1=2 w2=2 0.4 2016-04-14 11:55:00
1 2016-04-15 18:00:00 rrr = 0.4 y WW = 10 w1=2 w2=2 0.4 2016-04-15 17:53:00
1 2016-04-21 12:00:00 rrr = 0.2 y WW = 5 w1=2 w2=2 0.2 2016-04-21 11:55:00
1 2016-04-24 00:00:00 rrr = 0.2 y WW = 1 w1=2 w2=2 0.2 2016-04-23 23:55:00
1 2016-05-05 12:00:00 rrr = 0.2 y WW = 10 w1=2 w2=2 0.2 2016-05-05 11:57:00
1 2016-05-05 18:00:00 rrr = trazas y WW = 1 w1=1 w2=1 0.0 2016-05-05 17:49:00
1 2016-05-15 12:00:00 rrr = 0.4 y WW = 2 w1=0 w2=0 0.4 2016-05-15 11:52:00
1 2016-05-20 12:00:00 rrr = 8.2 y WW = 10 w1=2 w2=2 8.2 2016-05-20 11:58:00
1 2016-05-21 18:00:00 rrr = 0.2 y WW = 3 w1=0 w2=0 0.2 2016-05-21 17:49:00
1 2016-05-22 12:00:00 rrr = 0.4 y WW = 2 w1=0 w2=0 0.4 2016-05-22 11:56:00
1 2016-06-19 12:00:00 rrr = 0.2 y WW = 10 w1=4 w2=4 0.2 2016-06-19 11:53:00
1 2016-07-14 12:00:00 rrr = 11.6 y WW = 5 w1=0 w2=0 11.6 2016-07-14 11:52:00
1 2016-07-23 18:00:00 rrr = 0.4 y WW = 2 w1=2 w2=2 0.4 2016-07-23 17:53:00
1 2016-08-02 12:00:00 rrr = 0.2 y WW = 5 w1=0 w2=0 0.2 2016-08-02 11:53:00
1 2016-08-07 18:00:00 rrr = trazas y WW = 1 w1=1 w2=1 0.0 2016-08-07 17:51:00
1 2016-10-16 18:00:00 rrr = 1.8 y WW = 2 w1=2 w2=2 1.8 2016-10-16 17:57:00
1 2016-10-19 00:00:00 rrr = trazas y WW = 5 w1=0 w2=0 0.0 2016-10-18 23:55:00
1 2016-10-24 00:00:00 rrr = 0.2 y WW = 5 w1=2 w2=2 0.2 2016-10-23 23:54:00
1 2016-10-24 12:00:00 rrr = 0.2 y WW = 2 w1=0 w2=0 0.2 2016-10-24 11:51:00
1 2016-11-01 12:00:00 rrr = 2.8 y WW = 2 w1=0 w2=0 2.8 2016-11-01 11:50:00
1 2016-11-06 00:00:00 rrr = trazas y WW = 10 w1=2 w2=2 0.0 2016-11-05 23:54:00
1 2016-11-06 12:00:00 rrr = trazas y WW = 10 w1=2 w2=2 0.0 2016-11-06 12:01:00
1 2016-12-04 18:00:00 rrr = trazas y WW = 2 w1=2 w2=2 0.0 2016-12-04 17:55:00
1 2016-12-26 18:00:00 rrr = 0.2 y WW = 1 w1=1 w2=1 0.2 2016-12-26 17:55:00
1 2017-02-23 12:00:00 rrr = 0.6 y WW = 5 w1=2 w2=2 0.6 2017-02-23 11:54:00
1 2017-02-25 12:00:00 rrr = trazas y WW = 28 w1=2 w2=2 0.0 2017-02-25 11:59:00
1 2017-03-09 12:00:00 rrr = 0.8 y WW = 2 w1=0 w2=0 0.8 2017-03-09 11:50:00
1 2017-04-07 12:00:00 rrr = 8.3 y WW = 1 w1=2 w2=2 8.3 2017-04-07 11:54:00
1 2017-04-20 18:00:00 rrr = 0.2 y WW = 2 w1=2 w2=2 0.2 2017-04-20 17:50:00
1 2017-05-01 18:00:00 rrr = trazas y WW = 5 w1=2 w2=2 0.0 2017-05-01 17:52:00
1 2017-05-02 12:00:00 rrr = trazas y WW = 5 w1=1 w2=1 0.0 2017-05-02 11:56:00
1 2017-05-12 12:00:00 rrr = 1.6 y WW = 2 w1=2 w2=2 1.6 2017-05-12 11:54:00
1 2017-05-18 12:00:00 rrr = 8.6 y WW = 1 w1=2 w2=2 8.6 2017-05-18 12:01:00
1 2017-05-25 12:00:00 rrr = trazas y WW = 5 w1=2 w2=2 0.0 2017-05-25 11:56:00
1 2017-06-08 12:00:00 rrr = 3.8 y WW = 2 w1=0 w2=0 3.8 2017-06-08 11:57:00
1 2017-06-09 12:00:00 rrr = s/p y WW = 20 w1=0 w2=0 0.0 2017-06-09 11:53:00
1 2017-06-17 12:00:00 rrr = 0.2 y WW = 2 w1=0 w2=0 0.2 2017-06-17 11:53:00
1 2017-07-23 00:00:00 rrr = trazas y WW = 2 w1=2 w2=2 0.0 2017-07-22 23:49:00
1 2017-07-24 00:00:00 rrr = 0.2 y WW = 10 w1=2 w2=2 0.2 2017-07-23 23:52:00
1 2017-08-12 00:00:00 rrr = trazas y WW = 1 w1=2 w2=2 0.0 2017-08-11 23:52:00
1 2017-08-19 12:00:00 rrr = 3.6 y WW = 1 w1=1 w2=1 3.6 2017-08-19 11:50:00
1 2017-08-23 18:00:00 rrr = 0.8 y WW = 1 w1=2 w2=2 0.8 2017-08-23 17:51:00
1 2017-09-25 12:00:00 rrr = 0.2 y WW = 3 w1=2 w2=2 0.2 2017-09-25 11:52:00
1 2017-10-08 00:00:00 rrr = s/p y WW = 5 w1=5 w2=2 0.0 2017-10-07 23:51:00
1 2017-10-29 00:00:00 rrr = trazas y WW = 2 w1=2 w2=2 0.0 2017-10-28 23:55:00
1 2017-11-02 12:00:00 rrr = trazas y WW = 10 w1=2 w2=2 0.0 2017-11-02 11:56:00
1 2017-11-13 12:00:00 rrr = s/p y WW = 10 w1=5 w2=2 0.0 2017-11-13 11:55:00
1 2017-11-25 00:00:00 rrr = 0.5 y WW = 0 w1=0 w2=0 0.5 2017-11-24 23:55:00
1 2017-12-02 18:00:00 rrr = trazas y WW = 2 w1=2 w2=2 0.0 2017-12-02 17:52:00
1 2017-12-26 00:00:00 rrr = s/p y WW = 51 w1=5 w2=4 0.0 2017-12-25 23:58:00
1 2018-01-12 12:00:00 rrr = s/p y WW = 20 w1=5 w2=2 0.0 2018-01-12 12:00:00
1 2018-01-14 18:00:00 rrr = 0.4 y WW = 2 w1=2 w2=2 0.4 2018-01-14 17:55:00
1 2018-01-15 12:00:00 rrr = trazas y WW = 10 w1=2 w2=2 0.0 2018-01-15 11:50:00
1 2018-02-19 12:00:00 rrr = s/p y WW = 42 w1=5 w2=4 0.0 2018-02-19 11:55:00
1 2018-02-23 12:00:00 rrr = 0.2 y WW = 10 w1=2 w2=2 0.2 2018-02-23 11:54:00
1 2018-04-02 18:00:00 rrr = s/p y WW = 5 w1=5 w2=2 0.0 2018-04-02 17:55:00
1 2018-04-11 12:00:00 rrr = 0.2 y WW = 2 w1=2 w2=2 0.2 2018-04-11 11:51:00
1 2018-04-16 12:00:00 rrr = s/p y WW = 10 w1=6 w2=2 0.0 2018-04-16 11:57:00
1 2018-05-07 18:00:00 rrr = trazas y WW = 2 w1=2 w2=2 0.0 2018-05-07 17:55:00
1 2018-05-08 12:00:00 rrr = trazas y WW = 28 w1=4 w2=4 0.0 2018-05-08 11:54:00
1 2018-06-06 00:00:00 rrr = 0.2 y WW = 2 w1=2 w2=2 0.2 2018-06-05 23:53:00
1 2018-06-19 18:00:00 rrr = 0.2 y WW = 5 w1=2 w2=2 0.2 2018-06-19 17:58:00
1 2018-06-23 12:00:00 rrr = trazas y WW = 10 w1=0 w2=0 0.0 2018-06-23 11:57:00
1 2018-06-24 12:00:00 rrr = 0.2 y WW = 2 w1=2 w2=2 0.2 2018-06-24 11:52:00
1 2018-06-28 18:00:00 rrr = 0.2 y WW = 10 w1=2 w2=2 0.2 2018-06-28 17:55:00
1 2018-07-04 00:00:00 rrr = 0.2 y WW = 2 w1=2 w2=2 0.2 2018-07-03 23:58:00
1 2018-07-06 12:00:00 rrr = 2.2 y WW = 2 w1=2 w2=2 2.2 2018-07-06 14:06:00
1 2018-07-06 18:00:00 rrr = 0.2 y WW = 2 w1=2 w2=2 0.2 2018-07-06 17:56:00
1 2018-07-25 12:00:00 rrr = 0.2 y WW = 28 w1=2 w2=2 0.2 2018-07-25 11:56:00
1 2018-07-28 18:00:00 rrr = trazas y WW = 0 w1=0 w2=0 0.0 2018-07-28 17:48:00
1 2018-08-23 12:00:00 rrr = 0.8 y WW = 10 w1=2 w2=2 0.8 2018-08-23 11:50:00
1 2018-08-24 00:00:00 rrr = 2.5 y WW = 3 w1=2 w2=2 2.5 2018-08-23 23:51:00
1 2018-09-18 18:00:00 rrr = s/p y WW = 1 w1=8 w2=2 0.0 2018-09-18 17:50:00
1 2018-09-26 12:00:00 rrr = trazas y WW = 10 w1=2 w2=2 0.0 2018-09-26 11:57:00
1 2018-11-22 18:00:00 rrr = 0.8 y WW = 2 w1=1 w2=0 0.8 2018-11-22 17:54:00
1 2019-02-20 18:00:00 rrr = trazas y WW = 2 w1=2 w2=2 0.0 2019-02-20 17:54:00
1 2019-03-23 18:00:00 rrr = s/p y WW = 5 w1=5 w2=4 0.0 2019-03-23 17:52:00
1 2019-03-27 12:00:00 rrr = trazas y WW = 28 w1=2 w2=2 0.0 2019-03-27 12:02:00
1 2019-03-31 00:00:00 rrr = s/p y WW = 10 w1=6 w2=4 0.0 2019-03-30 23:53:00
1 2019-04-09 18:00:00 rrr = trazas y WW = 5 w1=1 w2=1 0.0 2019-04-09 17:58:00
1 2019-04-12 12:00:00 rrr = s/p y WW = 10 w1=5 w2=2 0.0 2019-04-12 11:54:00
1 2019-04-12 18:00:00 rrr = trazas y WW = 5 w1=2 w2=2 0.0 2019-04-12 17:52:00
1 2019-04-24 18:00:00 rrr = 2.0 y WW = 5 w1=2 w2=2 2.0 2019-04-24 17:57:00
1 2019-05-06 12:00:00 rrr = 0.2 y WW = 5 w1=2 w2=2 0.2 2019-05-06 11:57:00
1 2019-05-08 18:00:00 rrr = trazas y WW = 10 w1=2 w2=2 0.0 2019-05-08 17:56:00
1 2019-05-27 00:00:00 rrr = trazas y WW = 1 w1=2 w2=2 0.0 2019-05-26 23:55:00
1 2019-06-14 18:00:00 rrr = 6.2 y WW = 2 w1=2 w2=2 6.2 2019-06-14 17:50:00
1 2019-06-18 00:00:00 rrr = 0.8 y WW = 1 w1=1 w2=1 0.8 2019-06-17 23:49:00
1 2019-06-21 00:00:00 rrr = 2.6 y WW = 10 w1=2 w2=2 2.6 2019-06-20 23:53:00
1 2019-06-29 18:00:00 rrr = 3.6 y WW = 2 w1=2 w2=2 3.6 2019-06-29 17:53:00
1 2019-07-21 18:00:00 rrr = 0.8 y WW = 5 w1=2 w2=2 0.8 2019-07-21 17:56:00
1 2019-08-06 18:00:00 rrr = trazas y WW = 2 w1=2 w2=2 0.0 2019-08-06 17:54:00
1 2019-08-10 12:00:00 rrr = trazas y WW = 5 w1=0 w2=0 0.0 2019-08-10 11:58:00
1 2019-08-15 18:00:00 rrr = trazas y WW = 5 w1=2 w2=2 0.0 2019-08-15 17:55:00
1 2019-08-23 00:00:00 rrr = trazas y WW = 1 w1=0 w2=0 0.0 2019-08-22 23:53:00
1 2019-08-23 12:00:00 rrr = trazas y WW = 10 w1=0 w2=0 0.0 2019-08-23 11:55:00
1 2019-08-29 18:00:00 rrr = trazas y WW = 5 w1=2 w2=2 0.0 2019-08-29 17:55:00
1 2019-09-07 18:00:00 rrr = 1.0 y WW = 5 w1=2 w2=2 1.0 2019-09-07 17:55:00
1 2019-09-09 18:00:00 rrr = trazas y WW = 2 w1=2 w2=2 0.0 2019-09-09 17:55:00
1 2019-09-14 12:00:00 rrr = trazas y WW = 5 w1=2 w2=2 0.0 2019-09-14 11:58:00
1 2019-09-24 12:00:00 rrr = trazas y WW = 10 w1=2 w2=2 0.0 2019-09-24 11:56:00
1 2019-09-30 18:00:00 rrr = 0.4 y WW = 2 w1=2 w2=2 0.4 2019-09-30 17:55:00
1 2019-10-13 12:00:00 rrr = trazas y WW = 2 w1=2 w2=2 0.0 2019-10-13 11:55:00
1 2019-10-14 18:00:00 rrr = 0.4 y WW = 5 w1=2 w2=2 0.4 2019-10-14 17:56:00
1 2020-02-11 18:00:00 rrr = s/p y WW = 5 w1=5 w2=2 0.0 2020-02-11 17:57:00
1 2020-06-03 12:00:00 rrr = 3.8 y WW = 3 w1=2 w2=2 3.8 2020-06-03 11:56:00
1 2020-06-07 12:00:00 rrr = 0.2 y WW = 10 w1=2 w2=0 0.2 2020-06-07 11:53:00
1 2020-06-22 12:00:00 rrr = 0.2 y WW = 2 w1=2 w2=2 0.2 2020-06-22 11:53:00
1 2020-06-23 18:00:00 rrr = 0.4 y WW = 5 w1=2 w2=2 0.4 2020-06-23 17:53:00
1 2020-07-03 12:00:00 rrr = 0.2 y WW = 28 w1=2 w2=2 0.2 2020-07-03 11:53:00
1 2020-07-05 12:00:00 rrr = 0.2 y WW = 3 w1=0 w2=0 0.2 2020-07-05 11:51:00
1 2020-07-07 18:00:00 rrr = 0.2 y WW = 3 w1=4 w2=2 0.2 2020-07-07 17:53:00
1 2020-07-08 12:00:00 rrr = 9.4 y WW = 5 w1=2 w2=2 9.4 2020-07-08 11:53:00
1 2020-07-08 18:00:00 rrr = 0.6 y WW = 1 w1=1 w2=0 0.6 2020-07-08 17:53:00
1 2020-07-11 18:00:00 rrr = 0.2 y WW = 10 w1=2 w2=2 0.2 2020-07-11 17:52:00
1 2020-07-23 12:00:00 rrr = 0.2 y WW = 3 w1=0 w2=0 0.2 2020-07-23 11:52:00
1 2020-07-30 12:00:00 rrr = 0.2 y WW = 10 w1=0 w2=0 0.2 2020-07-30 11:54:00
1 2020-08-05 18:00:00 rrr = 0.4 y WW = 2 w1=2 w2=2 0.4 2020-08-05 17:54:00
1 2020-08-14 18:00:00 rrr = 0.6 y WW = 2 w1=2 w2=2 0.6 2020-08-14 17:52:00
1 2020-08-27 12:00:00 rrr = 0.2 y WW = 28 w1=2 w2=2 0.2 2020-08-27 11:51:00
1 2020-08-29 12:00:00 rrr = 0.2 y WW = 1 w1=1 w2=0 0.2 2020-08-29 11:52:00
1 2020-08-31 12:00:00 rrr = 0.2 y WW = 2 w1=0 w2=0 0.2 2020-08-31 11:51:00
1 2020-09-06 12:00:00 rrr = 0.2 y WW = 5 w1=0 w2=0 0.2 2020-09-06 11:52:00
1 2020-09-10 12:00:00 rrr = trazas y WW = 28 w1=2 w2=2 0.0 2020-09-10 11:51:00
1 2020-09-13 12:00:00 rrr = 0.2 y WW = 0 w1=0 w2=0 0.2 2020-09-13 11:54:00
1 2020-09-21 18:00:00 rrr = s/p y WW = 5 w1=5 w2=2 0.0 2020-09-21 17:50:00
1 2020-09-25 18:00:00 rrr = 0.6 y WW = 1 w1=2 w2=2 0.6 2020-09-25 17:51:00
1 2020-09-28 12:00:00 rrr = 0.2 y WW = 2 w1=0 w2=0 0.2 2020-09-28 11:48:00
1 2020-10-08 18:00:00 rrr = 0.2 y WW = 2 w1=0 w2=0 0.2 2020-10-08 17:51:00
1 2020-10-16 18:00:00 rrr = 0.2 y WW = 10 w1=2 w2=2 0.2 2020-10-16 17:53:00
1 2020-10-19 18:00:00 rrr = trazas y WW = 5 w1=0 w2=0 0.0 2020-10-19 17:56:00
1 2020-11-11 12:00:00 rrr = trazas y WW = 10 w1=2 w2=2 0.0 2020-11-11 11:58:00
1 2020-11-19 18:00:00 rrr = 0.2 y WW = 2 w1=2 w2=2 0.2 2020-11-19 17:50:00
1 2020-11-30 12:00:00 rrr = trazas y WW = 5 w1=0 w2=0 0.0 2020-11-30 11:50:00
1 2020-12-27 12:00:00 rrr = s/p y WW = 20 w1=5 w2=5 0.0 2020-12-27 11:54:00
1 2021-01-21 18:00:00 rrr = trazas y WW = 10 w1=2 w2=2 0.0 2021-01-21 17:51:00
1 2021-02-05 18:00:00 rrr = trazas y WW = 5 w1=2 w2=2 0.0 2021-02-05 17:54:00
1 2021-02-10 00:00:00 rrr = trazas y WW = 10 w1=2 w2=2 0.0 2021-02-09 23:49:00
1 2021-02-10 18:00:00 rrr = 0.2 y WW = 5 w1=2 w2=2 0.2 2021-02-10 17:51:00
1 2021-02-13 18:00:00 rrr = trazas y WW = 10 w1=2 w2=2 0.0 2021-02-13 17:51:00
1 2021-02-15 12:00:00 rrr = trazas y WW = 10 w1=2 w2=2 0.0 2021-02-15 11:51:00
1 2021-02-21 12:00:00 rrr = 0.2 y WW = 10 w1=0 w2=0 0.2 2021-02-21 11:55:00
1 2021-02-26 18:00:00 rrr = trazas y WW = 5 w1=2 w2=2 0.0 2021-02-26 17:51:00
1 2021-02-27 18:00:00 rrr = trazas y WW = 10 w1=2 w2=2 0.0 2021-02-27 17:50:00
1 2021-03-03 18:00:00 rrr = trazas y WW = 5 w1=2 w2=2 0.0 2021-03-03 17:51:00
1 2021-03-06 18:00:00 rrr = trazas y WW = 2 w1=2 w2=2 0.0 2021-03-06 17:56:00
1 2021-04-01 12:00:00 rrr = trazas y WW = 10 w1=2 w2=2 0.0 2021-04-01 11:51:00
1 2021-04-03 12:00:00 rrr = 0.2 y WW = 28 w1=2 w2=2 0.2 2021-04-03 11:54:00
1 2021-04-15 12:00:00 rrr = trazas y WW = 28 w1=2 w2=2 0.0 2021-04-15 11:50:00
1 2021-04-17 12:00:00 rrr = 0.2 y WW = 10 w1=2 w2=2 0.2 2021-04-17 11:52:00
1 2021-04-21 12:00:00 rrr = 0.4 y WW = 2 w1=2 w2=2 0.4 2021-04-21 15:57:00
1 2021-04-21 18:00:00 rrr = 0.8 y WW = 2 w1=2 w2=2 0.8 2021-04-21 17:51:00
1 2021-04-29 18:00:00 rrr = 0.2 y WW = 5 w1=2 w2=2 0.2 2021-04-29 17:51:00
1 2021-05-16 12:00:00 rrr = 0.2 y WW = 10 w1=2 w2=2 0.2 2021-05-16 11:51:00
1 2021-05-21 00:00:00 rrr = 0.4 y WW = 1 w1=2 w2=2 0.4 2021-05-20 23:58:00
1 2021-05-21 12:00:00 rrr = 1.6 y WW = 5 w1=0 w2=0 1.6 2021-05-21 11:54:00
1 2021-06-24 00:00:00 rrr = 1.0 y WW = 1 w1=2 w2=2 1.0 2021-06-23 23:58:00
1 2021-06-26 12:00:00 rrr = 0.2 y WW = 10 w1=1 w2=1 0.2 2021-06-26 11:53:00
1 2021-07-10 12:00:00 rrr = 0.2 y WW = 1 w1=1 w2=1 0.2 2021-07-10 11:51:00
1 2021-07-24 18:00:00 rrr = 0.2 y WW = 5 w1=2 w2=2 0.2 2021-07-24 17:57:00
1 2021-07-25 12:00:00 rrr = 0.2 y WW = 5 w1=2 w2=2 0.2 2021-07-25 11:52:00
1 2021-07-26 00:00:00 rrr = 2.8 y WW = 1 w1=1 w2=1 2.8 2021-07-25 23:51:00
1 2021-08-17 00:00:00 rrr = 0.4 y WW = 2 w1=2 w2=2 0.4 2021-08-16 23:50:00
1 2021-08-17 18:00:00 rrr = s/p y WW = 1 w1=5 w2=2 0.0 2021-08-17 17:52:00
1 2021-08-19 12:00:00 rrr = 0.4 y WW = 10 w1=2 w2=2 0.4 2021-08-19 11:51:00
1 2021-08-19 18:00:00 rrr = 0.2 y WW = 2 w1=2 w2=2 0.2 2021-08-19 17:55:00
1 2021-08-30 00:00:00 rrr = 0.2 y WW = 10 w1=2 w2=2 0.2 2021-08-29 23:52:00
1 2021-09-09 12:00:00 rrr = 0.2 y WW = 1 w1=0 w2=0 0.2 2021-09-09 11:53:00
1 2021-09-12 12:00:00 rrr = 5.4 y WW = 10 w1=2 w2=2 5.4 2021-09-12 11:53:00
1 2021-09-12 18:00:00 rrr = trazas y WW = 1 w1=2 w2=2 0.0 2021-09-12 17:52:00
1 2021-09-25 12:00:00 rrr = trazas y WW = 10 w1=2 w2=2 0.0 2021-09-25 11:52:00
1 2021-10-08 18:00:00 rrr = trazas y WW = 2 w1=2 w2=2 0.0 2021-10-08 17:55:00
1 2021-10-14 12:00:00 rrr = 2.4 y WW = 5 w1=1 w2=1 2.4 2021-10-14 11:50:00
1 2021-10-20 18:00:00 rrr = trazas y WW = 2 w1=2 w2=2 0.0 2021-10-20 17:59:00
1 2021-11-09 12:00:00 rrr = 0.2 y WW = 10 w1=2 w2=2 0.2 2021-11-09 11:51:00
1 2021-11-12 12:00:00 rrr = trazas y WW = 10 w1=2 w2=2 0.0 2021-11-15 12:35:00
1 2021-11-20 12:00:00 rrr = 0.2 y WW = 10 w1=2 w2=2 0.2 2021-11-20 11:51:00
1 2013-02-03 15:00:00 (ts - td > 5.0) y ((ww >= 40 y ww <= 49)) 41 2016-01-28 19:44:00
Errores del Nivel 422
Nivel Fecha del Dato Descripción Información Error Fecha Ingreso
2 1995-02-20 12:00:00 Temperatura 16.9 del 20-02-1995 11:30, Menor que la Mínima 17.0 20-02-1995 12:00 16.9 -- 17.0 2011-07-21 18:31:00
2 2020-05-01 00:00:00 Temperatura 19.2 del 30-04-2020 16:00, Mayor que la Máxima 19.1 01-05-2020 00:00 19.2 -- 19.1 2020-05-01 00:20:00
Errores del Nivel 2
Informe generado el 23-02-2024 09:13
Requerimiento: RE6001